createdAt,value
2019-05-03T00:01:44.858Z,10.88
2019-05-03T00:04:16.024Z,10.92
2019-05-03T00:06:47.620Z,10.95
2019-05-03T00:09:17.990Z,10.91
2019-05-03T00:11:48.174Z,10.89
2019-05-03T00:14:18.642Z,10.87
2019-05-03T00:16:52.094Z,10.92
2019-05-03T00:19:22.186Z,10.94
2019-05-03T00:21:52.700Z,10.88
2019-05-03T00:24:22.991Z,10.73
2019-05-03T00:26:53.268Z,10.73
2019-05-03T00:29:23.629Z,10.71
2019-05-03T00:31:54.401Z,10.63
2019-05-03T00:34:29.590Z,10.61
2019-05-03T00:37:01.847Z,10.71
2019-05-03T00:39:37.096Z,10.83
2019-05-03T00:42:07.483Z,10.82
2019-05-03T00:44:38.171Z,10.82
2019-05-03T00:47:08.339Z,10.71
2019-05-03T00:49:38.524Z,10.67
2019-05-03T00:52:08.828Z,10.76
2019-05-03T00:54:38.995Z,10.72
2019-05-03T00:57:09.286Z,10.69
2019-05-03T00:59:39.459Z,10.64
2019-05-03T01:02:11.652Z,10.72
2019-05-03T01:04:42.691Z,10.72
2019-05-03T01:07:12.897Z,10.64
2019-05-03T01:09:43.154Z,10.66
2019-05-03T01:12:13.432Z,10.62
2019-05-03T01:14:45.344Z,10.57
2019-05-03T01:17:15.610Z,10.55
2019-05-03T01:19:45.875Z,10.57
2019-05-03T01:22:16.196Z,10.49
2019-05-03T01:24:46.476Z,10.41
2019-05-03T01:27:16.983Z,10.42
2019-05-03T01:29:47.332Z,10.40
2019-05-03T01:32:17.565Z,10.39
2019-05-03T01:34:47.919Z,10.41
2019-05-03T01:37:18.099Z,10.44
2019-05-03T01:39:48.260Z,10.41
2019-05-03T01:42:18.579Z,10.44
2019-05-03T01:44:48.786Z,10.38
2019-05-03T01:47:26.329Z,10.40
2019-05-03T01:50:07.358Z,10.37
2019-05-03T01:52:41.835Z,10.32
2019-05-03T01:55:15.521Z,10.17
2019-05-03T01:57:44.215Z,10.24
2019-05-03T02:00:19.481Z,10.14
2019-05-03T02:02:58.169Z,10.15
2019-05-03T02:05:47.443Z,10.22
2019-05-03T02:08:17.916Z,10.27
2019-05-03T02:10:48.261Z,10.31
2019-05-03T02:13:18.524Z,10.33
2019-05-03T02:15:48.675Z,10.33
2019-05-03T02:18:18.850Z,10.32
2019-05-03T02:20:49.122Z,10.35
2019-05-03T02:23:19.378Z,10.34
2019-05-03T02:25:55.971Z,10.34
2019-05-03T02:28:22.029Z,10.34
2019-05-03T02:30:53.453Z,10.34
2019-05-03T02:33:24.065Z,10.31
2019-05-03T02:35:54.377Z,10.30
2019-05-03T02:38:25.189Z,10.33
2019-05-03T02:40:55.384Z,10.26
2019-05-03T02:43:39.414Z,10.20
2019-05-03T02:46:31.552Z,10.22
2019-05-03T02:49:39.879Z,10.20
2019-05-03T02:52:29.220Z,10.24
2019-05-03T02:54:59.411Z,10.31
2019-05-03T02:57:29.617Z,10.33
2019-05-03T03:00:00.280Z,10.33
2019-05-03T03:02:30.751Z,10.25
2019-05-03T03:05:01.136Z,10.09
2019-05-03T03:07:32.350Z,10.14
2019-05-03T03:10:05.142Z,10.18
2019-05-03T03:12:35.601Z,10.18
2019-05-03T03:15:06.420Z,10.27
2019-05-03T03:17:37.747Z,10.31
2019-05-03T03:20:09.132Z,10.32
2019-05-03T03:22:45.794Z,10.34
2019-05-03T03:25:25.916Z,10.37
2019-05-03T03:28:00.045Z,10.24
2019-05-03T03:31:11.312Z,10.17
2019-05-03T03:33:41.413Z,10.13
2019-05-03T03:36:37.798Z,10.07
2019-05-03T03:38:45.765Z,10.08
2019-05-03T03:41:16.605Z,10.09
2019-05-03T03:43:46.989Z,10.11
2019-05-03T03:46:18.012Z,10.13
2019-05-03T03:48:48.358Z,10.09
2019-05-03T03:51:20.698Z,10.09
2019-05-03T03:53:55.470Z,10.03
2019-05-03T03:56:26.868Z,10.04
2019-05-03T03:58:57.405Z,9.97
2019-05-03T04:01:28.183Z,9.99
2019-05-03T04:03:58.404Z,9.97
2019-05-03T04:06:46.308Z,9.94
2019-05-03T04:09:16.190Z,9.87
2019-05-03T04:11:47.243Z,9.83
2019-05-03T04:14:25.285Z,9.88
2019-05-03T04:17:15.078Z,9.93
2019-05-03T04:19:46.372Z,9.98
2019-05-03T04:22:16.716Z,9.98
2019-05-03T04:24:46.937Z,9.97
2019-05-03T04:27:23.034Z,9.93
2019-05-03T04:29:49.834Z,9.98
2019-05-03T04:32:20.095Z,10.05
2019-05-03T04:34:50.430Z,10.06
2019-05-03T04:37:20.675Z,9.98
2019-05-03T04:39:51.052Z,9.94
2019-05-03T04:42:21.141Z,9.93
2019-05-03T04:44:51.355Z,9.97
2019-05-03T04:47:21.593Z,9.91
2019-05-03T04:49:51.738Z,9.89
2019-05-03T04:52:21.871Z,9.85
2019-05-03T04:54:56.922Z,9.86
2019-05-03T04:57:40.023Z,9.87
2019-05-03T05:00:00.294Z,9.87
2019-05-03T05:02:30.586Z,9.81
2019-05-03T05:05:00.725Z,9.81
2019-05-03T05:07:30.883Z,9.82
2019-05-03T05:10:01.160Z,9.96
2019-05-03T05:12:31.503Z,10.03
2019-05-03T05:15:02.074Z,10.09
2019-05-03T05:17:57.623Z,10.16
2019-05-03T05:20:42.494Z,10.20
2019-05-03T05:23:14.669Z,10.32
2019-05-03T05:25:51.076Z,10.37
2019-05-03T05:28:52.576Z,10.38
2019-05-03T05:31:23.011Z,10.42
2019-05-03T05:33:54.540Z,10.50
2019-05-03T05:36:24.836Z,10.52
2019-05-03T05:38:55.429Z,10.66
2019-05-03T05:41:25.919Z,10.69
2019-05-03T05:43:56.408Z,10.74
2019-05-03T05:46:31.117Z,10.81
2019-05-03T05:49:04.288Z,10.89
2019-05-03T05:51:35.326Z,10.99
2019-05-03T05:54:05.980Z,11.02
2019-05-03T05:56:47.790Z,11.07
2019-05-03T05:59:46.091Z,11.07
2019-05-03T06:02:18.313Z,11.08
2019-05-03T06:04:48.690Z,11.16
2019-05-03T06:07:47.098Z,11.18
2019-05-03T06:10:25.942Z,11.14
2019-05-03T06:13:05.429Z,11.08
2019-05-03T06:15:54.818Z,11.12
2019-05-03T06:18:30.819Z,11.01
2019-05-03T06:21:11.416Z,11.07
2019-05-03T06:23:47.867Z,11.13
2019-05-03T06:26:35.637Z,11.10
2019-05-03T06:29:07.769Z,11.08
2019-05-03T06:31:55.616Z,10.96
2019-05-03T06:34:26.684Z,10.92
2019-05-03T06:36:58.872Z,10.73
2019-05-03T06:39:30.119Z,10.53
2019-05-03T06:42:00.446Z,10.28
2019-05-03T06:44:30.791Z,10.15
2019-05-03T06:47:06.040Z,10.05
2019-05-03T06:49:34.569Z,9.96
2019-05-03T06:52:05.938Z,10.01
2019-05-03T06:54:37.884Z,9.93
2019-05-03T06:57:10.386Z,10.01
2019-05-03T06:59:46.907Z,10.06
2019-05-03T07:02:45.432Z,9.97
2019-05-03T07:05:26.041Z,10.07
2019-05-03T07:08:01.401Z,9.94
2019-05-03T07:10:41.054Z,10.01
2019-05-03T07:13:11.472Z,9.97
2019-05-03T07:15:41.912Z,9.97
2019-05-03T07:18:12.183Z,10.02
2019-05-03T07:20:46.252Z,9.95
2019-05-03T07:23:16.637Z,10.13
2019-05-03T07:25:46.958Z,10.22
2019-05-03T07:28:18.182Z,10.25
2019-05-03T07:30:48.373Z,10.24
2019-05-03T07:33:27.783Z,10.36
2019-05-03T07:35:58.162Z,10.47
2019-05-03T07:38:28.463Z,10.48
2019-05-03T07:40:59.859Z,10.65
2019-05-03T07:43:30.030Z,10.50
2019-05-03T07:46:00.682Z,10.54
2019-05-03T07:48:31.061Z,10.34
2019-05-03T07:51:02.122Z,10.46
2019-05-03T07:53:34.903Z,10.27
2019-05-03T07:56:11.418Z,10.41
2019-05-03T07:58:48.882Z,10.43
2019-05-03T08:01:25.134Z,10.40
2019-05-03T08:03:55.782Z,10.54
2019-05-03T08:06:26.077Z,10.74
2019-05-03T08:08:56.536Z,10.74
2019-05-03T08:11:26.777Z,10.86
2019-05-03T08:13:57.384Z,10.85
2019-05-03T08:16:27.856Z,10.79
2019-05-03T08:18:58.227Z,10.83
2019-05-03T08:21:28.516Z,10.66
2019-05-03T08:23:59.236Z,10.49
2019-05-03T08:26:29.662Z,10.60
2019-05-03T08:29:12.670Z,10.71
2019-05-03T08:31:49.620Z,10.67
2019-05-03T08:34:41.807Z,10.67
2019-05-03T08:37:18.068Z,10.80
2019-05-03T08:39:48.279Z,10.70
2019-05-03T08:42:25.226Z,10.52
2019-05-03T08:44:55.531Z,10.42
2019-05-03T08:47:25.998Z,10.57
2019-05-03T08:49:56.334Z,10.69
2019-05-03T08:52:26.566Z,10.92
2019-05-03T08:54:57.171Z,11.03
2019-05-03T08:57:27.600Z,10.94
2019-05-03T08:59:57.686Z,11.16
2019-05-03T09:02:28.291Z,11.45
2019-05-03T09:04:58.979Z,11.69
2019-05-03T09:07:29.325Z,11.83
2019-05-03T09:10:24.988Z,11.80
2019-05-03T09:13:06.791Z,11.83
2019-05-03T09:15:37.627Z,12.01
2019-05-03T09:18:08.169Z,12.24
2019-05-03T09:20:38.556Z,12.16
2019-05-03T09:23:08.741Z,11.95
2019-05-03T09:25:39.051Z,11.87
2019-05-03T09:28:09.588Z,11.92
2019-05-03T09:30:40.077Z,12.36
2019-05-03T09:33:10.529Z,12.52
2019-05-03T09:35:40.820Z,12.55
2019-05-03T09:38:11.222Z,12.72
2019-05-03T09:40:41.680Z,12.85
2019-05-03T09:43:15.095Z,12.90
2019-05-03T09:45:45.653Z,12.88
2019-05-03T09:48:16.304Z,12.84
2019-05-03T09:50:46.538Z,12.49
2019-05-03T09:53:18.585Z,12.32
2019-05-03T09:55:48.848Z,12.25
2019-05-03T09:58:19.292Z,12.27
2019-05-03T10:00:50.175Z,12.19
2019-05-03T10:03:20.527Z,11.95
2019-05-03T10:05:50.808Z,11.86
2019-05-03T10:08:20.982Z,11.65
2019-05-03T10:11:08.891Z,11.43
2019-05-03T10:13:41.845Z,11.26
2019-05-03T10:16:11.321Z,11.28
2019-05-03T10:18:41.945Z,11.54
2019-05-03T10:21:14.662Z,11.85
2019-05-03T10:23:45.249Z,13.41
2019-05-03T10:26:15.815Z,13.41
2019-05-03T10:28:46.362Z,14.70
2019-05-03T10:31:17.024Z,15.24
2019-05-03T10:33:55.997Z,14.71
2019-05-03T10:36:26.298Z,14.29
2019-05-03T10:38:56.559Z,13.74
2019-05-03T10:41:26.881Z,13.83
2019-05-03T10:43:57.183Z,13.51
2019-05-03T10:46:28.126Z,12.71
2019-05-03T10:48:58.519Z,12.45
2019-05-03T10:51:31.095Z,12.28
2019-05-03T10:54:01.488Z,12.19
2019-05-03T10:56:47.192Z,12.32
2019-05-03T10:59:18.127Z,12.43
2019-05-03T11:02:07.846Z,12.85
2019-05-03T11:04:38.403Z,12.91
2019-05-03T11:07:08.592Z,13.11
2019-05-03T11:09:48.840Z,13.27
2019-05-03T11:12:14.748Z,13.35
2019-05-03T11:14:45.593Z,13.36
2019-05-03T11:17:16.100Z,13.48
2019-05-03T11:19:46.578Z,13.48
2019-05-03T11:22:16.907Z,13.54
2019-05-03T11:24:47.570Z,13.48
2019-05-03T11:27:24.707Z,13.32
2019-05-03T11:29:59.278Z,13.45
2019-05-03T11:32:41.603Z,13.81
2019-05-03T11:35:26.795Z,14.53
2019-05-03T11:38:19.642Z,14.95
2019-05-03T11:40:51.415Z,15.35
2019-05-03T11:43:24.724Z,15.62
2019-05-03T11:45:55.616Z,15.52
2019-05-03T11:48:26.101Z,15.39
2019-05-03T11:50:59.095Z,15.04
2019-05-03T11:53:29.369Z,15.51
2019-05-03T11:56:00.055Z,15.61
2019-05-03T11:58:30.619Z,17.16
2019-05-03T12:01:29.423Z,17.70
2019-05-03T12:04:05.055Z,18.76
2019-05-03T12:06:36.819Z,19.56
2019-05-03T12:09:09.266Z,20.73
2019-05-03T12:11:40.528Z,21.03
2019-05-03T12:14:11.644Z,23.15
2019-05-03T12:19:30.433Z,23.54
2019-05-03T12:21:55.605Z,21.47
2019-05-03T12:24:27.098Z,19.20
2019-05-03T12:26:58.563Z,17.69
2019-05-03T12:29:29.450Z,17.34
2019-05-03T12:32:00.025Z,16.48
2019-05-03T12:34:30.862Z,16.10
2019-05-03T12:37:01.888Z,15.47
2019-05-03T12:39:35.892Z,14.98
2019-05-03T12:42:05.939Z,15.15
2019-05-03T12:44:36.578Z,16.12
2019-05-03T12:47:08.166Z,17.09
2019-05-03T12:49:39.041Z,16.64
2019-05-03T12:52:10.762Z,17.42
2019-05-03T12:54:42.356Z,17.04
2019-05-03T12:57:12.945Z,16.84
2019-05-03T13:00:01.357Z,18.27
2019-05-03T13:02:41.948Z,18.56
2019-05-03T13:05:12.361Z,18.84
2019-05-03T13:07:50.311Z,18.31
2019-05-03T13:10:23.265Z,19.40
2019-05-03T13:12:53.498Z,19.70
2019-05-03T13:15:24.553Z,18.43
2019-05-03T13:17:55.461Z,18.23
2019-05-03T13:20:26.134Z,17.57
2019-05-03T13:22:56.770Z,16.42
2019-05-03T13:25:27.581Z,16.27
2019-05-03T13:27:57.992Z,16.19
2019-05-03T13:30:28.472Z,16.06
2019-05-03T13:32:58.906Z,15.73
2019-05-03T13:35:29.321Z,15.13
2019-05-03T13:37:59.777Z,14.54
2019-05-03T13:40:30.829Z,14.32
2019-05-03T13:43:03.755Z,14.75
2019-05-03T13:45:35.376Z,15.11
2019-05-03T13:48:05.284Z,14.95
2019-05-03T13:50:35.645Z,15.03
2019-05-03T13:53:06.218Z,15.18
2019-05-03T13:55:36.542Z,15.66
2019-05-03T13:58:06.769Z,16.05
2019-05-03T14:00:37.134Z,15.95
2019-05-03T14:03:07.500Z,15.21
2019-05-03T14:05:38.074Z,15.09
2019-05-03T14:08:08.522Z,14.79
2019-05-03T14:10:38.827Z,15.06
2019-05-03T14:13:09.259Z,15.04
2019-05-03T14:15:39.865Z,14.64
2019-05-03T14:18:10.379Z,14.34
2019-05-03T14:21:05.713Z,13.96
2019-05-03T14:23:54.005Z,14.11
2019-05-03T14:26:24.627Z,14.37
2019-05-03T14:28:56.382Z,14.41
2019-05-03T14:31:26.903Z,14.49
2019-05-03T14:33:57.331Z,14.24
2019-05-03T14:36:27.826Z,14.16
2019-05-03T14:38:58.609Z,14.45
2019-05-03T14:41:28.956Z,14.67
2019-05-03T14:43:59.288Z,14.69
2019-05-03T14:46:33.174Z,14.74
2019-05-03T14:49:01.636Z,14.79
2019-05-03T14:51:32.008Z,14.67
2019-05-03T14:54:02.637Z,14.51
2019-05-03T14:56:51.981Z,14.43
2019-05-03T14:59:59.524Z,14.37
2019-05-03T15:02:55.402Z,14.35
2019-05-03T15:05:25.454Z,14.07
2019-05-03T15:07:56.027Z,14.00
2019-05-03T15:10:26.838Z,13.72
2019-05-03T15:12:58.935Z,13.81
2019-05-03T15:15:29.184Z,13.63
2019-05-03T15:17:59.490Z,13.31
2019-05-03T15:20:29.869Z,13.43
2019-05-03T15:23:00.520Z,13.32
2019-05-03T15:25:31.127Z,13.27
2019-05-03T15:28:07.702Z,13.15
2019-05-03T15:30:38.373Z,13.31
2019-05-03T15:33:08.668Z,13.51
2019-05-03T15:35:39.053Z,13.62
2019-05-03T15:38:09.539Z,13.64
2019-05-03T15:40:40.135Z,13.57
2019-05-03T15:43:34.658Z,13.45
2019-05-03T15:46:20.798Z,13.29
2019-05-03T15:48:55.101Z,13.46
2019-05-03T15:51:25.699Z,13.53
2019-05-03T15:53:56.145Z,13.36
2019-05-03T15:56:26.482Z,13.14
2019-05-03T15:58:57.248Z,12.97
2019-05-03T16:01:28.627Z,12.84
2019-05-03T16:03:58.966Z,12.88
2019-05-03T16:06:29.612Z,12.85
2019-05-03T16:09:00.175Z,12.96
2019-05-03T16:11:30.553Z,13.05
2019-05-03T16:14:07.680Z,13.07
2019-05-03T16:16:38.294Z,12.99
2019-05-03T16:19:08.738Z,12.73
2019-05-03T16:21:39.756Z,12.73
2019-05-03T16:24:10.088Z,12.79
2019-05-03T16:26:59.363Z,12.89
2019-05-03T16:29:30.016Z,12.98
2019-05-03T16:32:00.373Z,12.71
2019-05-03T16:34:30.999Z,12.60
2019-05-03T16:37:01.458Z,12.53
2019-05-03T16:39:32.022Z,12.32
2019-05-03T16:42:04.232Z,12.41
2019-05-03T16:44:35.133Z,12.50
2019-05-03T16:47:07.281Z,12.56
2019-05-03T16:49:38.534Z,12.49
2019-05-03T16:52:08.841Z,12.53
2019-05-03T16:54:39.786Z,12.55
2019-05-03T16:57:10.458Z,12.55
2019-05-03T16:59:40.965Z,12.44
2019-05-03T17:02:11.431Z,12.39
2019-05-03T17:05:05.161Z,12.36
2019-05-03T17:07:46.533Z,12.14
2019-05-03T17:10:26.883Z,12.23
2019-05-03T17:13:06.086Z,12.36
2019-05-03T17:15:36.613Z,12.34
2019-05-03T17:18:07.910Z,12.27
2019-05-03T17:20:39.391Z,12.35
2019-05-03T17:23:09.724Z,12.51
2019-05-03T17:25:40.541Z,12.48
2019-05-03T17:28:10.994Z,12.43
2019-05-03T17:30:41.270Z,12.41
2019-05-03T17:33:11.480Z,12.45
2019-05-03T17:35:42.089Z,12.45
2019-05-03T17:38:12.433Z,12.47
2019-05-03T17:41:10.823Z,12.47
2019-05-03T17:43:51.024Z,12.51
2019-05-03T17:46:21.461Z,12.54
2019-05-03T17:48:54.693Z,12.46
2019-05-03T17:51:43.014Z,12.42
2019-05-03T17:54:35.737Z,12.34
2019-05-03T17:57:09.960Z,12.23
2019-05-03T17:59:44.563Z,12.24
2019-05-03T18:02:44.981Z,12.21
2019-05-03T18:05:25.003Z,12.21
2019-05-03T18:08:13.024Z,12.16
2019-05-03T18:10:47.665Z,12.13
2019-05-03T18:13:18.152Z,12.03
2019-05-03T18:15:48.568Z,11.97
2019-05-03T18:18:18.892Z,11.88
2019-05-03T18:20:49.337Z,11.88
2019-05-03T18:23:19.977Z,11.75
2019-05-03T18:25:50.908Z,11.70
2019-05-03T18:28:21.322Z,11.65
2019-05-03T18:30:51.863Z,11.60
2019-05-03T18:33:24.582Z,11.53
2019-05-03T18:35:55.139Z,11.41
2019-05-03T18:38:25.768Z,11.33
2019-05-03T18:40:56.437Z,11.26
2019-05-03T18:43:36.082Z,11.21
2019-05-03T18:46:34.634Z,11.20
2019-05-03T18:49:05.211Z,11.15
2019-05-03T18:51:35.808Z,11.14
2019-05-03T18:54:10.108Z,11.07
2019-05-03T18:56:40.629Z,10.82
2019-05-03T18:59:11.518Z,10.64
2019-05-03T19:01:42.403Z,10.57
2019-05-03T19:04:37.875Z,10.50
2019-05-03T19:07:14.954Z,10.48
2019-05-03T19:10:19.904Z,10.41
2019-05-03T19:12:57.529Z,10.31
2019-05-03T19:15:29.819Z,10.34
2019-05-03T19:18:22.186Z,10.28
2019-05-03T19:20:54.971Z,10.23
2019-05-03T19:23:25.097Z,10.20
2019-05-03T19:25:55.649Z,10.24
2019-05-03T19:28:26.064Z,10.17
2019-05-03T19:30:58.018Z,10.09
2019-05-03T19:33:28.639Z,10.05
2019-05-03T19:36:00.360Z,10.05
2019-05-03T19:38:30.870Z,10.03
2019-05-03T19:41:01.424Z,10.00
2019-05-03T19:43:32.159Z,9.94
2019-05-03T19:46:04.622Z,9.88
2019-05-03T19:48:34.946Z,9.81
2019-05-03T19:51:06.709Z,9.79
2019-05-03T19:53:56.313Z,9.71
2019-05-03T19:56:27.428Z,9.55
2019-05-03T19:59:04.811Z,9.40
2019-05-03T20:01:52.673Z,9.38
2019-05-03T20:04:42.069Z,9.40
2019-05-03T20:07:30.364Z,9.39
2019-05-03T20:10:00.878Z,9.38
2019-05-03T20:12:31.377Z,9.30
2019-05-03T20:15:02.398Z,9.19
2019-05-03T20:17:34.601Z,9.14
2019-05-03T20:20:05.475Z,9.17
2019-05-03T20:22:36.058Z,9.18
2019-05-03T20:25:07.318Z,9.19
2019-05-03T20:27:37.956Z,9.14
2019-05-03T20:30:08.750Z,9.04
2019-05-03T20:32:39.264Z,9.09
2019-05-03T20:35:18.056Z,9.13
2019-05-03T20:37:42.163Z,9.01
2019-05-03T20:40:15.366Z,9.01
2019-05-03T20:43:12.257Z,9.03
2019-05-03T20:46:15.119Z,9.02
2019-05-03T20:48:48.619Z,9.01
2019-05-03T20:51:19.353Z,9.03
2019-05-03T20:53:52.434Z,9.09
2019-05-03T20:56:24.642Z,9.12
2019-05-03T20:58:55.098Z,9.05
2019-05-03T21:01:25.993Z,9.04
2019-05-03T21:03:56.406Z,9.04
2019-05-03T21:06:35.392Z,9.04
2019-05-03T21:08:59.582Z,9.06
2019-05-03T21:11:29.923Z,9.03
2019-05-03T21:14:00.194Z,8.98
2019-05-03T21:16:52.282Z,8.96
2019-05-03T21:19:47.679Z,9.01
2019-05-03T21:22:24.909Z,9.02
2019-05-03T21:25:01.725Z,9.04
2019-05-03T21:27:32.399Z,9.02
2019-05-03T21:30:04.602Z,8.99
2019-05-03T21:32:35.141Z,9.01
2019-05-03T21:35:06.455Z,9.01
2019-05-03T21:37:36.879Z,9.02
2019-05-03T21:40:07.409Z,8.82
2019-05-03T21:42:37.611Z,8.79
2019-05-03T21:45:09.596Z,8.80
2019-05-03T21:48:01.752Z,8.79
2019-05-03T21:50:32.340Z,8.83
2019-05-03T21:53:06.004Z,8.76
2019-05-03T21:55:36.691Z,8.73
2019-05-03T21:58:06.958Z,8.70
2019-05-03T22:00:45.882Z,8.70
2019-05-03T22:03:16.249Z,8.73
2019-05-03T22:05:54.509Z,8.65
2019-05-03T22:08:18.563Z,8.61
2019-05-03T22:10:48.805Z,8.63
2019-05-03T22:13:18.968Z,8.48
2019-05-03T22:15:54.169Z,8.48
2019-05-03T22:18:25.999Z,8.50
2019-05-03T22:21:18.277Z,8.48
2019-05-03T22:24:16.704Z,8.50
2019-05-03T22:27:09.628Z,8.47
2019-05-03T22:29:39.861Z,8.53
2019-05-03T22:32:10.017Z,8.62
2019-05-03T22:34:40.503Z,8.62
2019-05-03T22:37:10.649Z,8.64
2019-05-03T22:39:41.994Z,8.66
2019-05-03T22:42:12.217Z,8.67
2019-05-03T22:44:42.533Z,8.69
2019-05-03T22:47:14.760Z,8.67
2019-05-03T22:49:45.743Z,8.69
2019-05-03T22:52:16.329Z,8.56
2019-05-03T22:54:46.678Z,8.51
2019-05-03T22:57:17.153Z,8.54
2019-05-03T22:59:47.313Z,8.58
2019-05-03T23:02:17.503Z,8.58
2019-05-03T23:04:47.615Z,8.61
2019-05-03T23:07:17.753Z,8.56
2019-05-03T23:09:48.112Z,8.53
2019-05-03T23:12:19.344Z,8.56
2019-05-03T23:14:49.523Z,8.56
2019-05-03T23:17:19.820Z,8.56
2019-05-03T23:19:56.534Z,8.56
2019-05-03T23:22:29.314Z,8.54
2019-05-03T23:25:00.852Z,8.48
2019-05-03T23:27:31.202Z,8.47
2019-05-03T23:30:01.841Z,8.48
2019-05-03T23:32:32.395Z,8.53
2019-05-03T23:35:02.564Z,8.52
2019-05-03T23:37:34.602Z,8.43
2019-05-03T23:40:08.697Z,8.41
2019-05-03T23:42:39.135Z,8.40
2019-05-03T23:45:09.454Z,8.42
2019-05-03T23:47:44.884Z,8.29
2019-05-03T23:50:20.213Z,8.28
2019-05-03T23:52:51.767Z,8.21
2019-05-03T23:55:39.079Z,8.22
2019-05-03T23:58:09.487Z,8.30
